createdAt,value
2022-12-15T00:00:18.742Z,9.70
2022-12-15T00:03:04.705Z,9.17
2022-12-15T00:06:25.547Z,8.73
2022-12-15T00:09:14.276Z,9.13
2022-12-15T00:12:00.557Z,8.07
2022-12-15T00:14:57.648Z,9.57
2022-12-15T00:17:43.376Z,9.40
2022-12-15T00:20:28.975Z,8.77
2022-12-15T00:23:30.750Z,8.30
2022-12-15T00:26:16.763Z,8.47
2022-12-15T00:29:02.577Z,9.37
2022-12-15T00:31:48.370Z,7.87
2022-12-15T00:34:35.281Z,8.17
2022-12-15T00:37:20.933Z,8.63
2022-12-15T00:39:58.679Z,8.47
2022-12-15T00:42:28.722Z,8.47
2022-12-15T00:44:58.025Z,8.00
2022-12-15T00:47:25.255Z,9.10
2022-12-15T00:50:10.909Z,8.77
2022-12-15T00:52:56.569Z,7.93
2022-12-15T00:55:42.275Z,8.07
2022-12-15T00:58:27.826Z,8.57
2022-12-15T01:01:13.574Z,8.50
2022-12-15T01:03:59.196Z,8.10
2022-12-15T01:06:45.143Z,8.30
2022-12-15T01:09:31.789Z,8.80
2022-12-15T01:12:17.405Z,7.87
2022-12-15T01:15:02.985Z,7.83
2022-12-15T01:17:48.779Z,8.30
2022-12-15T01:20:16.156Z,7.70
2022-12-15T01:23:01.707Z,7.57
2022-12-15T01:25:47.059Z,8.00
2022-12-15T01:28:35.723Z,7.53
2022-12-15T01:31:21.106Z,8.00
2022-12-15T01:33:48.244Z,8.80
2022-12-15T01:36:15.686Z,8.33
2022-12-15T01:38:42.853Z,8.50
2022-12-15T01:41:25.448Z,8.13
2022-12-15T01:43:52.567Z,7.10
2022-12-15T01:46:31.878Z,7.37
2022-12-15T01:49:11.647Z,7.13
2022-12-15T01:51:41.552Z,7.43
2022-12-15T01:54:15.167Z,7.50
2022-12-15T01:56:49.521Z,7.90
2022-12-15T01:59:43.777Z,6.90
2022-12-15T02:02:34.363Z,7.10
2022-12-15T02:05:05.563Z,7.13
2022-12-15T02:07:32.698Z,7.17
2022-12-15T02:10:02.892Z,7.73
2022-12-15T02:12:41.994Z,7.17
2022-12-15T02:15:17.204Z,6.93
2022-12-15T02:18:09.118Z,6.87
2022-12-15T02:20:51.425Z,6.77
2022-12-15T02:23:35.238Z,7.30
2022-12-15T02:26:14.809Z,7.70
2022-12-15T02:29:09.491Z,7.67
2022-12-15T02:31:57.346Z,7.83
2022-12-15T02:34:45.167Z,6.73
2022-12-15T02:37:19.127Z,6.63
2022-12-15T02:39:46.166Z,6.53
2022-12-15T02:42:13.349Z,6.50
2022-12-15T02:44:50.874Z,6.07
2022-12-15T02:47:20.901Z,6.70
2022-12-15T02:50:42.135Z,7.23
2022-12-15T02:53:09.375Z,6.60
2022-12-15T02:55:53.077Z,7.33
2022-12-15T02:58:26.711Z,6.87
2022-12-15T03:01:02.660Z,6.90
2022-12-15T03:03:32.644Z,6.97
2022-12-15T03:06:02.488Z,6.70
2022-12-15T03:08:29.933Z,6.90
2022-12-15T03:10:58.065Z,6.97
2022-12-15T03:13:26.189Z,6.90
2022-12-15T03:15:54.496Z,5.77
2022-12-15T03:18:21.794Z,5.93
2022-12-15T03:20:49.189Z,5.90
2022-12-15T03:23:18.684Z,6.00
2022-12-15T03:25:46.188Z,6.97
2022-12-15T03:28:17.651Z,6.47
2022-12-15T03:30:45.076Z,6.40
2022-12-15T03:33:12.654Z,6.50
2022-12-15T03:35:39.782Z,5.97
2022-12-15T03:38:07.313Z,5.90
2022-12-15T03:40:34.458Z,5.50
2022-12-15T03:43:01.737Z,6.03
2022-12-15T03:45:29.406Z,6.30
2022-12-15T03:47:57.484Z,5.87
2022-12-15T03:50:27.345Z,6.23
2022-12-15T03:53:07.501Z,6.17
2022-12-15T03:55:35.317Z,5.20
2022-12-15T03:58:02.995Z,5.03
2022-12-15T04:00:30.233Z,6.87
2022-12-15T04:03:00.124Z,6.23
2022-12-15T04:05:31.052Z,5.73
2022-12-15T04:07:59.760Z,6.13
2022-12-15T04:10:33.929Z,6.27
2022-12-15T04:13:07.695Z,5.57
2022-12-15T04:15:37.196Z,5.03
2022-12-15T04:18:06.716Z,5.40
2022-12-15T04:20:34.246Z,5.80
2022-12-15T04:23:19.683Z,6.20
2022-12-15T04:26:23.853Z,5.87
2022-12-15T04:29:09.473Z,5.73
2022-12-15T04:31:55.073Z,6.37
2022-12-15T04:34:42.865Z,6.17
2022-12-15T04:37:32.706Z,6.10
2022-12-15T04:40:18.792Z,5.47
2022-12-15T04:43:06.683Z,6.10
2022-12-15T04:45:52.431Z,6.37
2022-12-15T04:48:38.143Z,6.33
2022-12-15T04:51:24.230Z,6.43
2022-12-15T04:54:09.790Z,6.57
2022-12-15T04:56:55.086Z,6.40
2022-12-15T04:59:41.407Z,6.70
2022-12-15T05:02:27.073Z,5.87
2022-12-15T05:05:18.445Z,6.27
2022-12-15T05:08:03.876Z,6.37
2022-12-15T05:10:49.436Z,6.60
2022-12-15T05:13:35.151Z,5.93
2022-12-15T05:16:20.991Z,6.97
2022-12-15T05:19:06.511Z,6.50
2022-12-15T05:21:52.287Z,5.90
2022-12-15T05:24:38.004Z,6.60
2022-12-15T05:27:23.659Z,6.13
2022-12-15T05:30:09.343Z,5.73
2022-12-15T05:32:36.420Z,6.97
2022-12-15T05:35:04.966Z,6.77
2022-12-15T05:37:38.660Z,6.07
2022-12-15T05:40:06.264Z,7.10
2022-12-15T05:42:33.517Z,6.97
2022-12-15T05:45:00.855Z,6.77
2022-12-15T05:47:28.144Z,6.80
2022-12-15T05:49:55.224Z,6.33
2022-12-15T05:52:22.553Z,7.43
2022-12-15T05:54:49.620Z,6.60
2022-12-15T05:57:16.696Z,6.23
2022-12-15T05:59:43.750Z,6.97
2022-12-15T06:02:11.029Z,7.17
2022-12-15T06:04:52.391Z,6.60
2022-12-15T06:07:19.443Z,7.67
2022-12-15T06:09:46.583Z,7.20
2022-12-15T06:12:13.757Z,7.33
2022-12-15T06:14:40.896Z,7.33
2022-12-15T06:17:16.002Z,8.07
2022-12-15T06:19:43.139Z,8.60
2022-12-15T06:22:10.527Z,8.00
2022-12-15T06:24:37.602Z,8.60
2022-12-15T06:27:04.926Z,9.73
2022-12-15T06:29:32.003Z,10.27
2022-12-15T06:31:59.118Z,8.03
2022-12-15T06:34:27.162Z,6.80
2022-12-15T06:36:54.386Z,7.13
2022-12-15T06:39:21.658Z,7.70
2022-12-15T06:41:48.832Z,8.00
2022-12-15T06:44:16.616Z,7.77
2022-12-15T06:46:46.074Z,7.00
2022-12-15T06:49:13.523Z,7.50
2022-12-15T06:51:41.488Z,7.13
2022-12-15T06:54:11.123Z,6.33
2022-12-15T06:56:39.410Z,6.90
2022-12-15T06:59:07.730Z,7.00
2022-12-15T07:01:35.367Z,6.70
2022-12-15T07:04:05.409Z,6.40
2022-12-15T07:06:37.475Z,7.70
2022-12-15T07:09:08.046Z,6.83
2022-12-15T07:11:38.232Z,8.13
2022-12-15T07:14:05.366Z,9.00
2022-12-15T07:16:33.084Z,9.77
2022-12-15T07:19:00.271Z,8.10
2022-12-15T07:21:27.649Z,7.50
2022-12-15T07:23:56.727Z,8.20
2022-12-15T07:26:25.661Z,8.07
2022-12-15T07:28:54.022Z,9.70
2022-12-15T07:31:22.209Z,8.97
2022-12-15T07:33:52.014Z,8.43
2022-12-15T07:36:19.433Z,8.57
2022-12-15T07:38:50.743Z,8.10
2022-12-15T07:41:35.576Z,7.90
2022-12-15T07:44:02.674Z,8.60
2022-12-15T07:46:30.342Z,7.67
2022-12-15T07:48:57.659Z,8.57
2022-12-15T07:51:24.916Z,7.90
2022-12-15T07:53:52.005Z,9.00
2022-12-15T07:56:20.494Z,10.20
2022-12-15T07:58:48.175Z,9.97
2022-12-15T08:01:16.008Z,9.77
2022-12-15T08:03:43.622Z,9.20
2022-12-15T08:06:13.225Z,10.40
2022-12-15T08:08:40.814Z,10.73
2022-12-15T08:11:10.214Z,9.97
2022-12-15T08:14:02.037Z,10.80
2022-12-15T08:16:25.819Z,10.90
2022-12-15T08:18:53.428Z,13.20
2022-12-15T08:21:20.579Z,15.37
2022-12-15T08:23:48.041Z,14.33
2022-12-15T08:26:17.739Z,13.33
2022-12-15T08:28:46.070Z,12.40
2022-12-15T08:31:19.634Z,13.93
2022-12-15T08:33:47.895Z,12.23
2022-12-15T08:36:17.663Z,13.07
2022-12-15T08:38:45.956Z,11.90
2022-12-15T08:41:33.103Z,12.27
2022-12-15T08:44:01.585Z,13.23
2022-12-15T08:46:33.956Z,13.53
2022-12-15T08:49:02.254Z,12.90
2022-12-15T08:51:31.737Z,12.37
2022-12-15T08:54:01.135Z,11.50
2022-12-15T08:56:29.069Z,10.73
2022-12-15T08:58:59.705Z,12.03
2022-12-15T09:01:29.324Z,13.40
2022-12-15T09:03:57.920Z,12.30
2022-12-15T09:06:31.384Z,11.43
2022-12-15T09:09:01.246Z,13.53
2022-12-15T09:11:30.106Z,11.60
2022-12-15T09:13:58.169Z,13.37
2022-12-15T09:16:25.969Z,14.37
2022-12-15T09:18:55.429Z,14.07
2022-12-15T09:21:26.486Z,14.93
2022-12-15T09:23:56.346Z,16.43
2022-12-15T09:26:24.013Z,15.67
2022-12-15T09:28:51.540Z,15.97
2022-12-15T09:31:28.864Z,13.47
2022-12-15T09:33:58.847Z,15.80
2022-12-15T09:36:27.501Z,14.17
2022-12-15T09:38:55.196Z,14.67
2022-12-15T09:41:34.637Z,14.33
2022-12-15T09:44:13.148Z,14.57
2022-12-15T09:47:06.196Z,15.30
2022-12-15T09:49:51.257Z,14.53
2022-12-15T09:52:25.351Z,15.33
2022-12-15T09:54:52.903Z,16.90
2022-12-15T09:57:30.189Z,16.40
2022-12-15T10:00:21.246Z,15.00
2022-12-15T10:03:07.339Z,15.70
2022-12-15T10:06:16.183Z,18.17
2022-12-15T10:08:54.067Z,15.83
2022-12-15T10:11:57.414Z,15.63
2022-12-15T10:15:04.343Z,16.67
2022-12-15T10:17:57.478Z,19.73
2022-12-15T10:20:28.760Z,18.03
2022-12-15T10:23:11.097Z,15.77
2022-12-15T10:25:38.469Z,16.83
2022-12-15T10:28:43.449Z,17.10
2022-12-15T10:31:25.426Z,16.90
2022-12-15T10:33:57.880Z,16.40
2022-12-15T10:36:24.997Z,15.97
2022-12-15T10:38:52.596Z,16.93
2022-12-15T10:41:25.865Z,14.50
2022-12-15T10:43:54.651Z,14.97
2022-12-15T10:46:25.166Z,16.33
2022-12-15T10:48:56.860Z,17.13
2022-12-15T10:51:31.731Z,14.60
2022-12-15T10:54:01.788Z,16.17
2022-12-15T10:56:33.519Z,15.07
2022-12-15T10:59:21.078Z,17.13
2022-12-15T11:01:48.453Z,17.17
2022-12-15T11:04:29.723Z,17.40
2022-12-15T11:07:02.866Z,15.73
2022-12-15T11:09:37.960Z,16.63
2022-12-15T11:12:38.964Z,15.37
2022-12-15T11:15:21.585Z,18.00
2022-12-15T11:18:07.418Z,17.53
2022-12-15T11:20:38.299Z,16.87
2022-12-15T11:23:18.863Z,16.07
2022-12-15T11:26:04.901Z,16.43
2022-12-15T11:28:49.587Z,16.87
2022-12-15T11:31:44.173Z,15.27
2022-12-15T11:34:19.603Z,14.67
2022-12-15T11:37:24.154Z,14.90
2022-12-15T11:39:57.230Z,14.23
2022-12-15T11:42:57.600Z,14.77
2022-12-15T11:45:35.751Z,13.30
2022-12-15T11:48:21.224Z,12.47
2022-12-15T11:51:17.595Z,13.57
2022-12-15T11:54:47.139Z,13.77
2022-12-15T11:57:50.423Z,13.53
2022-12-15T12:00:21.557Z,13.70
2022-12-15T12:02:59.668Z,14.10
2022-12-15T12:05:55.281Z,14.80
2022-12-15T12:08:25.195Z,13.50
2022-12-15T12:11:10.518Z,13.70
2022-12-15T12:13:55.288Z,13.53
2022-12-15T12:16:36.724Z,14.77
2022-12-15T12:19:44.720Z,14.57
2022-12-15T12:22:30.441Z,14.90
2022-12-15T12:25:03.004Z,14.43
2022-12-15T12:27:50.307Z,14.83
2022-12-15T12:30:21.379Z,13.67
2022-12-15T12:32:50.631Z,13.43
2022-12-15T12:36:03.064Z,13.43
2022-12-15T12:38:36.511Z,13.60
2022-12-15T12:41:14.889Z,14.47
2022-12-15T12:44:07.152Z,13.53
2022-12-15T12:46:41.230Z,12.33
2022-12-15T12:49:26.654Z,11.03
2022-12-15T12:52:34.965Z,11.33
2022-12-15T12:55:23.819Z,10.93
2022-12-15T12:57:51.025Z,12.33
2022-12-15T13:00:30.440Z,12.13
2022-12-15T13:03:13.403Z,12.17
2022-12-15T13:05:57.814Z,12.37
2022-12-15T13:08:50.816Z,11.83
2022-12-15T13:11:55.807Z,11.63
2022-12-15T13:14:44.774Z,12.43
2022-12-15T13:17:27.956Z,11.17
2022-12-15T13:19:58.258Z,11.77
2022-12-15T13:22:37.682Z,12.27
2022-12-15T13:25:47.446Z,12.67
2022-12-15T13:28:36.022Z,13.50
2022-12-15T13:31:14.953Z,13.50
2022-12-15T13:33:51.441Z,15.27
2022-12-15T13:36:37.115Z,12.93
2022-12-15T13:39:06.038Z,13.03
2022-12-15T13:41:33.303Z,12.57
2022-12-15T13:44:01.393Z,11.67
2022-12-15T13:46:33.653Z,12.30
2022-12-15T13:49:10.400Z,11.60
2022-12-15T13:51:51.559Z,13.17
2022-12-15T13:54:23.837Z,12.63
2022-12-15T13:57:07.052Z,12.60
2022-12-15T13:59:40.094Z,12.20
2022-12-15T14:02:27.879Z,12.57
2022-12-15T14:05:18.963Z,14.40
2022-12-15T14:07:57.388Z,22.40
2022-12-15T14:10:27.424Z,26.93
2022-12-15T14:12:59.044Z,19.17
2022-12-15T14:15:31.942Z,21.50
2022-12-15T14:18:02.131Z,19.90
2022-12-15T14:20:32.331Z,20.03
2022-12-15T14:23:24.748Z,20.27
2022-12-15T14:26:27.787Z,21.60
2022-12-15T14:29:01.384Z,27.67
2022-12-15T14:31:28.768Z,23.40
2022-12-15T14:34:22.906Z,21.27
2022-12-15T14:36:51.592Z,16.80
2022-12-15T14:39:34.769Z,17.03
2022-12-15T14:42:03.089Z,15.93
2022-12-15T14:44:38.028Z,16.00
2022-12-15T14:47:16.317Z,13.37
2022-12-15T14:49:45.760Z,12.70
2022-12-15T14:52:27.496Z,10.80
2022-12-15T14:54:58.061Z,10.67
2022-12-15T14:57:40.787Z,10.37
2022-12-15T15:00:36.858Z,10.10
2022-12-15T15:05:54.424Z,10.90
2022-12-15T15:08:27.684Z,11.33
2022-12-15T15:10:57.451Z,11.20
2022-12-15T15:13:26.970Z,11.70
2022-12-15T15:16:03.937Z,11.27
2022-12-15T15:18:31.601Z,11.27
2022-12-15T15:21:03.506Z,10.20
2022-12-15T15:23:31.318Z,9.50
2022-12-15T15:26:09.701Z,8.67
2022-12-15T15:28:41.859Z,8.70
2022-12-15T15:31:40.891Z,8.67
2022-12-15T15:34:09.354Z,9.77
2022-12-15T15:37:17.806Z,8.47
2022-12-15T15:39:47.667Z,8.30
2022-12-15T15:42:14.695Z,8.77
2022-12-15T15:45:00.350Z,10.07
2022-12-15T15:47:27.483Z,9.10
2022-12-15T15:49:58.290Z,8.90
2022-12-15T15:52:25.841Z,9.43
2022-12-15T15:55:05.622Z,7.97
2022-12-15T15:57:32.662Z,8.33
2022-12-15T15:59:59.712Z,8.60
2022-12-15T16:02:26.978Z,9.20
2022-12-15T16:04:54.119Z,8.97
2022-12-15T16:07:28.547Z,10.20
2022-12-15T16:09:55.997Z,9.33
2022-12-15T16:12:40.056Z,9.87
2022-12-15T16:15:16.007Z,10.10
2022-12-15T16:17:45.018Z,11.10
2022-12-15T16:20:14.156Z,12.20
2022-12-15T16:22:44.178Z,11.40
2022-12-15T16:25:19.233Z,10.13
2022-12-15T16:27:46.343Z,11.80
2022-12-15T16:30:23.464Z,11.53
2022-12-15T16:32:50.663Z,17.47
2022-12-15T16:35:18.347Z,11.23
2022-12-15T16:37:46.733Z,12.50
2022-12-15T16:40:26.137Z,12.80
2022-12-15T16:43:00.058Z,9.13
2022-12-15T16:45:30.407Z,8.63
2022-12-15T16:48:00.757Z,8.50
2022-12-15T16:50:34.577Z,9.30
2022-12-15T16:53:21.940Z,8.07
2022-12-15T16:55:54.208Z,7.97
2022-12-15T16:58:22.301Z,8.77
2022-12-15T17:00:50.254Z,10.60
2022-12-15T17:03:19.480Z,10.77
2022-12-15T17:05:59.014Z,12.13
2022-12-15T17:08:42.632Z,12.30
2022-12-15T17:11:29.356Z,13.77
2022-12-15T17:14:16.944Z,13.90
2022-12-15T17:16:45.279Z,13.73
2022-12-15T17:19:20.898Z,11.30
2022-12-15T17:21:52.481Z,9.83
2022-12-15T17:24:21.698Z,9.97
2022-12-15T17:26:59.519Z,28.27
2022-12-15T17:29:26.874Z,10.37
2022-12-15T17:31:54.111Z,9.13
2022-12-15T17:34:26.330Z,8.37
2022-12-15T17:36:53.883Z,8.50
2022-12-15T17:39:22.418Z,9.23
2022-12-15T17:42:00.036Z,8.70
2022-12-15T17:44:36.838Z,9.10
2022-12-15T17:47:08.599Z,10.37
2022-12-15T17:49:38.650Z,11.63
2022-12-15T17:52:30.493Z,11.20
2022-12-15T17:55:04.347Z,12.27
2022-12-15T17:57:32.070Z,14.33
2022-12-15T18:00:04.658Z,16.80
2022-12-15T18:02:33.228Z,14.87
2022-12-15T18:05:11.753Z,11.90
2022-12-15T18:07:57.947Z,10.37
2022-12-15T18:10:32.728Z,9.80
2022-12-15T18:13:00.134Z,8.80
2022-12-15T18:15:31.410Z,9.50
2022-12-15T18:18:00.301Z,9.40
2022-12-15T18:20:27.383Z,13.07
2022-12-15T18:23:02.665Z,11.60
2022-12-15T18:25:31.082Z,10.30
2022-12-15T18:28:00.993Z,11.67
2022-12-15T18:30:28.353Z,10.30
2022-12-15T18:32:58.482Z,10.60
2022-12-15T18:35:46.758Z,10.20
2022-12-15T18:38:23.795Z,10.63
2022-12-15T18:40:53.884Z,9.13
2022-12-15T18:43:23.742Z,8.20
2022-12-15T18:45:51.924Z,8.97
2022-12-15T18:48:22.401Z,10.60
2022-12-15T18:50:52.640Z,12.20
2022-12-15T18:53:40.361Z,10.23
2022-12-15T18:56:09.056Z,10.47
2022-12-15T18:58:39.685Z,11.10
2022-12-15T19:01:08.713Z,10.80
2022-12-15T19:03:36.920Z,10.80
2022-12-15T19:06:12.014Z,11.57
2022-12-15T19:08:40.343Z,9.93
2022-12-15T19:11:17.760Z,9.97
2022-12-15T19:13:45.901Z,8.60
2022-12-15T19:16:18.012Z,7.90
2022-12-15T19:19:03.679Z,7.80
2022-12-15T19:21:48.624Z,8.03
2022-12-15T19:24:42.554Z,8.73
2022-12-15T19:27:17.403Z,9.63
2022-12-15T19:29:45.183Z,9.00
2022-12-15T19:32:12.518Z,7.83
2022-12-15T19:34:57.864Z,7.40
2022-12-15T19:37:31.196Z,8.17
2022-12-15T19:40:01.942Z,8.80
2022-12-15T19:42:33.520Z,9.27
2022-12-15T19:45:02.783Z,11.73
2022-12-15T19:47:30.585Z,10.57
2022-12-15T19:49:58.126Z,11.27
2022-12-15T19:52:27.516Z,10.87
2022-12-15T19:54:55.384Z,11.30
2022-12-15T19:57:25.607Z,14.27
2022-12-15T19:59:53.111Z,16.93
2022-12-15T20:02:22.381Z,14.40
2022-12-15T20:04:56.911Z,12.07
2022-12-15T20:07:46.606Z,13.47
2022-12-15T20:10:27.541Z,16.50
2022-12-15T20:13:15.172Z,17.33
2022-12-15T20:15:45.800Z,14.50
2022-12-15T20:18:17.044Z,13.77
2022-12-15T20:20:48.881Z,18.57
2022-12-15T20:23:27.256Z,16.70
2022-12-15T20:25:56.116Z,16.57
2022-12-15T20:28:28.464Z,14.60
2022-12-15T20:30:57.548Z,13.27
2022-12-15T20:33:25.346Z,12.77
2022-12-15T20:35:52.934Z,11.57
2022-12-15T20:38:31.921Z,10.67
2022-12-15T20:41:01.258Z,12.00
2022-12-15T20:43:31.780Z,10.77
2022-12-15T20:46:14.517Z,9.83
2022-12-15T20:48:43.381Z,10.37
2022-12-15T20:51:29.373Z,8.07
2022-12-15T20:53:59.678Z,8.90
2022-12-15T20:56:27.869Z,9.67
2022-12-15T20:59:17.765Z,11.90
2022-12-15T21:01:49.150Z,10.20
2022-12-15T21:04:30.479Z,9.27
2022-12-15T21:06:58.241Z,8.07
2022-12-15T21:09:25.925Z,6.97
2022-12-15T21:11:55.157Z,7.70
2022-12-15T21:14:24.184Z,7.47
2022-12-15T21:16:51.831Z,10.13
2022-12-15T21:19:21.236Z,9.67
2022-12-15T21:21:55.143Z,10.90
2022-12-15T21:24:28.342Z,11.43
2022-12-15T21:26:56.304Z,11.87
2022-12-15T21:29:26.351Z,11.73
2022-12-15T21:31:53.782Z,13.07
2022-12-15T21:34:21.262Z,13.47
2022-12-15T21:36:52.609Z,12.77
2022-12-15T21:39:30.281Z,10.73
2022-12-15T21:42:08.412Z,9.57
2022-12-15T21:45:00.866Z,9.90
2022-12-15T21:51:30.194Z,9.73
2022-12-15T21:53:57.688Z,9.87
2022-12-15T21:56:25.017Z,9.33
2022-12-15T21:58:55.046Z,10.27
2022-12-15T22:01:27.814Z,9.90
2022-12-15T22:04:01.712Z,9.60
2022-12-15T22:06:30.422Z,8.40
2022-12-15T22:09:01.173Z,8.87
2022-12-15T22:11:31.093Z,9.13
2022-12-15T22:14:02.046Z,8.80
2022-12-15T22:16:29.866Z,11.70
2022-12-15T22:18:58.373Z,11.17
2022-12-15T22:21:26.020Z,10.37
2022-12-15T22:23:53.054Z,11.13
2022-12-15T22:26:21.699Z,11.57
2022-12-15T22:28:50.553Z,10.47
2022-12-15T22:31:18.065Z,9.30
2022-12-15T22:33:45.305Z,9.40
2022-12-15T22:36:12.342Z,8.83
2022-12-15T22:38:39.583Z,8.97
2022-12-15T22:41:16.954Z,8.97
2022-12-15T22:43:44.675Z,7.77
2022-12-15T22:46:14.715Z,7.80
2022-12-15T22:48:45.379Z,8.67
2022-12-15T22:51:15.046Z,7.30
2022-12-15T22:53:42.428Z,6.87
2022-12-15T22:56:38.979Z,5.93
2022-12-15T22:59:11.473Z,6.77
2022-12-15T23:01:38.971Z,6.17
2022-12-15T23:04:06.358Z,5.47
2022-12-15T23:06:33.460Z,6.00
2022-12-15T23:09:00.774Z,6.97
2022-12-15T23:11:37.138Z,10.37
2022-12-15T23:14:06.746Z,9.33
2022-12-15T23:16:34.650Z,7.40
2022-12-15T23:19:02.168Z,7.37
2022-12-15T23:21:30.030Z,7.53
2022-12-15T23:23:57.893Z,6.90
2022-12-15T23:26:26.009Z,6.60
2022-12-15T23:28:55.214Z,6.73
2022-12-15T23:31:22.937Z,7.23
2022-12-15T23:33:51.980Z,7.40
2022-12-15T23:36:19.843Z,7.20
2022-12-15T23:38:47.194Z,7.97
2022-12-15T23:41:16.899Z,7.20
2022-12-15T23:43:44.079Z,7.83
2022-12-15T23:46:11.230Z,7.20
2022-12-15T23:48:43.063Z,9.57
2022-12-15T23:51:12.393Z,8.63
2022-12-15T23:53:40.552Z,8.00
2022-12-15T23:56:09.540Z,8.20
2022-12-15T23:58:39.291Z,8.70
